Huvudsida
METAR-TAF:

METAR-TAF

Flygplatser :

Imphal Airport

Imphal, Indien

latitud: 24-45-36N, longitud: 93-53-48E, höjd: 774 m

Aktuellt väderrapport

Denna rapport gjordes för 40 minuter sedan, klockan 08:00 UTC
Vind 7 kt från väst
Temperatur 31°C
Fuktighet 49%
Tryck 1008 hPa
Sikt: 5000 m
Få moln på en höjd av 1800 ft
Spridda moln på en höjd av 10000 ft
torrdis,

METAR: VEIM 200800Z 28007KT 5000 HZ FEW018 SCT100 31/19 Q1008 NOSIG

Tid: 14:10 (08:40 UTC)

Väderprognos

Denna rapport gjordes för 3 timmar och 40 minuter sedan, klockan 05:00 UTC
Prognos gäller från 20 kl. 06 UTC till 20 kl. 15 UTC
Vind 5 kt från nordost
Sikt: 4000 m
Spridda moln på en höjd av 1600 ft
Brutna moln på en höjd av 9000 ft
torrdis
Blir
från 20 kl. 12 UTC till 20 kl. 14 UTC
Vind 5 kt från väst/nordväst
Sikt: 3000 m
Få moln på en höjd av 2000 ft
Spridda moln på en höjd av 10000 ft
torrdis,

TAF: VEIM 200500Z 2006/2015 05005KT 4000 HZ SCT016 BKN090 BECMG 2012/2014 30005KT 3000 HZ FEW020 SCT100

Aktuella väderrapporter och prognoser från 4000 flygplatser (METAR- och TAF-rapporter).

De tillgängliga stationerna syns som gula och röda prickar på kartan.

För musen över prickarna för att se namnen på stationerna.

Klicka sedan för att få väderrapporter och prognoser.

För att ändra kartan: Klicka på de gröna knapparna med ett svart kors på för att zooma in; den gröna knappen med ett streck på för att zooma ut; eller på de gröna pilarna för angränsande kartor.


METAR-TAF: